createdAt,value
2022-10-24T00:01:44.894Z,11.83
2022-10-24T00:04:13.357Z,10.10
2022-10-24T00:06:42.257Z,8.80
2022-10-24T00:09:10.468Z,9.00
2022-10-24T00:11:39.274Z,12.27
2022-10-24T00:14:07.606Z,7.50
2022-10-24T00:16:35.871Z,5.77
2022-10-24T00:19:06.349Z,6.50
2022-10-24T00:21:34.389Z,6.77
2022-10-24T00:24:02.759Z,11.70
2022-10-24T00:26:31.326Z,9.27
2022-10-24T00:31:33.243Z,10.23
2022-10-24T00:34:02.257Z,5.77
2022-10-24T00:36:32.598Z,7.53
2022-10-24T00:39:01.636Z,7.27
2022-10-24T00:41:31.952Z,7.23
2022-10-24T00:44:18.852Z,9.53
2022-10-24T00:46:49.735Z,8.20
2022-10-24T00:49:22.838Z,6.53
2022-10-24T00:51:57.191Z,7.90
2022-10-24T00:54:25.907Z,11.93
2022-10-24T00:57:06.298Z,8.37
2022-10-24T00:59:36.766Z,8.30
2022-10-24T01:02:05.221Z,6.80
2022-10-24T01:04:33.326Z,8.13
2022-10-24T01:07:17.474Z,5.23
2022-10-24T01:10:18.774Z,7.00
2022-10-24T01:12:56.094Z,5.70
2022-10-24T01:15:33.116Z,11.23
2022-10-24T01:18:08.319Z,7.47
2022-10-24T01:20:49.040Z,9.07
2022-10-24T01:23:50.338Z,6.27
2022-10-24T01:26:37.748Z,8.23
2022-10-24T01:29:15.939Z,11.47
2022-10-24T01:31:50.849Z,8.20
2022-10-24T01:34:27.847Z,6.77
2022-10-24T01:37:03.386Z,7.30
2022-10-24T01:39:36.112Z,5.50
2022-10-24T01:42:07.024Z,7.53
2022-10-24T01:44:40.008Z,8.43
2022-10-24T01:47:14.372Z,6.67
2022-10-24T01:49:46.631Z,7.20
2022-10-24T01:52:17.279Z,12.50
2022-10-24T01:54:48.303Z,7.03
2022-10-24T01:57:16.504Z,7.93
2022-10-24T01:59:48.160Z,7.67
2022-10-24T02:02:23.116Z,7.07
2022-10-24T02:04:56.152Z,7.60
2022-10-24T02:07:26.930Z,9.73
2022-10-24T02:10:02.167Z,8.30
2022-10-24T02:12:31.492Z,6.43
2022-10-24T02:15:04.511Z,8.03
2022-10-24T02:17:34.524Z,7.93
2022-10-24T02:20:03.838Z,5.23
2022-10-24T02:22:41.192Z,7.23
2022-10-24T02:25:13.399Z,11.83
2022-10-24T02:27:50.713Z,7.73
2022-10-24T02:30:22.262Z,7.17
2022-10-24T02:32:55.159Z,6.27
2022-10-24T02:35:27.469Z,8.17
2022-10-24T02:38:00.568Z,8.23
2022-10-24T02:40:28.814Z,5.07
2022-10-24T02:42:59.624Z,7.03
2022-10-24T02:45:29.201Z,5.47
2022-10-24T02:48:03.787Z,8.10
2022-10-24T02:50:33.701Z,7.93
2022-10-24T02:53:01.961Z,5.73
2022-10-24T02:55:30.405Z,5.50
2022-10-24T02:57:58.696Z,9.17
2022-10-24T03:00:26.948Z,7.87
2022-10-24T03:02:55.152Z,8.07
2022-10-24T03:05:24.939Z,5.60
2022-10-24T03:07:52.971Z,6.57
2022-10-24T03:10:21.326Z,5.80
2022-10-24T03:12:49.752Z,6.60
2022-10-24T03:15:17.975Z,7.00
2022-10-24T03:17:49.163Z,6.80
2022-10-24T03:20:17.704Z,8.73
2022-10-24T03:22:47.489Z,6.47
2022-10-24T03:25:15.500Z,7.70
2022-10-24T03:27:44.164Z,7.67
2022-10-24T03:30:13.739Z,6.60
2022-10-24T03:32:42.351Z,6.67
2022-10-24T03:35:14.161Z,10.57
2022-10-24T03:37:42.770Z,9.87
2022-10-24T03:40:13.242Z,7.63
2022-10-24T03:42:43.765Z,5.53
2022-10-24T03:45:12.513Z,7.40
2022-10-24T03:47:41.234Z,7.40
2022-10-24T03:50:10.151Z,6.77
2022-10-24T03:52:38.672Z,9.50
2022-10-24T03:55:08.019Z,9.67
2022-10-24T03:57:37.758Z,7.07
2022-10-24T04:00:06.860Z,6.27
2022-10-24T04:02:37.065Z,5.37
2022-10-24T04:05:08.599Z,6.93
2022-10-24T04:07:37.108Z,8.87
2022-10-24T04:10:05.462Z,8.13
2022-10-24T04:12:34.279Z,11.57
2022-10-24T04:15:05.083Z,7.90
2022-10-24T04:17:33.965Z,10.87
2022-10-24T04:20:02.394Z,5.83
2022-10-24T04:22:30.825Z,5.23
2022-10-24T04:24:58.976Z,5.20
2022-10-24T04:27:27.405Z,8.83
2022-10-24T04:29:55.679Z,8.30
2022-10-24T04:32:25.210Z,7.77
2022-10-24T04:34:53.337Z,8.13
2022-10-24T04:37:21.861Z,5.23
2022-10-24T04:39:50.072Z,4.00
2022-10-24T04:42:18.259Z,5.03
2022-10-24T04:44:46.661Z,8.50
2022-10-24T04:47:15.431Z,5.97
2022-10-24T04:49:45.119Z,4.93
2022-10-24T04:52:13.370Z,7.50
2022-10-24T04:54:41.729Z,6.13
2022-10-24T04:57:09.990Z,9.57
2022-10-24T04:59:38.306Z,4.87
2022-10-24T05:02:06.593Z,6.17
2022-10-24T05:04:34.903Z,8.60
2022-10-24T05:07:04.693Z,5.07
2022-10-24T05:09:32.933Z,9.40
2022-10-24T05:12:02.246Z,7.70
2022-10-24T05:14:30.805Z,4.67
2022-10-24T05:16:59.169Z,5.90
2022-10-24T05:19:27.380Z,7.23
2022-10-24T05:21:55.677Z,6.03
2022-10-24T05:24:25.784Z,6.87
2022-10-24T05:26:54.073Z,7.80
2022-10-24T05:29:22.404Z,6.47
2022-10-24T05:31:50.481Z,5.50
2022-10-24T05:34:18.622Z,4.40
2022-10-24T05:36:46.940Z,5.93
2022-10-24T05:39:14.959Z,7.30
2022-10-24T05:41:46.972Z,9.07
2022-10-24T05:44:16.347Z,4.70
2022-10-24T05:46:45.247Z,6.93
2022-10-24T05:49:14.958Z,9.47
2022-10-24T05:51:43.192Z,6.77
2022-10-24T05:56:39.936Z,5.90
2022-10-24T05:59:10.334Z,3.60
2022-10-24T06:01:38.931Z,6.07
2022-10-24T06:04:10.002Z,8.27
2022-10-24T06:06:41.768Z,6.47
2022-10-24T06:09:10.080Z,8.10
2022-10-24T06:11:38.387Z,6.37
2022-10-24T06:14:07.192Z,8.00
2022-10-24T06:16:36.718Z,8.63
2022-10-24T06:19:04.993Z,8.53
2022-10-24T06:21:33.403Z,6.73
2022-10-24T06:24:01.507Z,8.60
2022-10-24T06:26:29.617Z,4.53
2022-10-24T06:28:58.007Z,5.17
2022-10-24T06:31:26.883Z,5.57
2022-10-24T06:33:56.834Z,9.63
2022-10-24T06:36:26.949Z,4.33
2022-10-24T06:38:58.586Z,7.03
2022-10-24T06:41:26.824Z,5.30
2022-10-24T06:43:56.605Z,5.33
2022-10-24T06:46:25.236Z,7.73
2022-10-24T06:48:56.867Z,6.97
2022-10-24T06:51:26.080Z,7.03
2022-10-24T06:53:55.094Z,8.67
2022-10-24T06:56:23.349Z,6.43
2022-10-24T06:58:51.447Z,5.57
2022-10-24T07:01:21.711Z,6.33
2022-10-24T07:03:50.234Z,3.97
2022-10-24T07:08:53.015Z,5.83
2022-10-24T07:11:21.217Z,5.60
2022-10-24T07:13:49.998Z,8.53
2022-10-24T07:16:19.119Z,8.83
2022-10-24T07:18:48.253Z,5.90
2022-10-24T07:21:19.880Z,3.43
2022-10-24T07:23:49.649Z,2.97
2022-10-24T07:26:17.847Z,4.57
2022-10-24T07:28:47.846Z,6.47
2022-10-24T07:31:19.668Z,4.40
2022-10-24T07:33:47.975Z,5.33
2022-10-24T07:36:19.139Z,7.17
2022-10-24T07:38:47.675Z,9.67
2022-10-24T07:41:17.333Z,3.87
2022-10-24T07:43:46.451Z,5.27
2022-10-24T07:46:17.037Z,5.90
2022-10-24T07:48:45.553Z,5.17
2022-10-24T07:51:15.388Z,5.53
2022-10-24T07:53:44.061Z,6.87
2022-10-24T07:56:14.651Z,10.83
2022-10-24T07:58:45.486Z,4.40
2022-10-24T08:01:15.631Z,8.23
2022-10-24T08:03:43.875Z,6.53
2022-10-24T08:06:15.129Z,6.00
2022-10-24T08:08:43.403Z,6.27
2022-10-24T08:11:14.507Z,7.00
2022-10-24T08:13:44.606Z,5.53
2022-10-24T08:16:14.892Z,8.73
2022-10-24T08:18:43.389Z,8.53
2022-10-24T08:21:14.595Z,4.90
2022-10-24T08:23:45.250Z,4.60
2022-10-24T08:26:15.699Z,4.90
2022-10-24T08:28:46.442Z,3.87
2022-10-24T08:31:17.072Z,5.00
2022-10-24T08:33:46.018Z,3.60
2022-10-24T08:36:19.146Z,3.87
2022-10-24T08:38:47.290Z,6.63
2022-10-24T08:41:23.645Z,3.97
2022-10-24T08:43:54.033Z,5.77
2022-10-24T08:46:40.437Z,4.13
2022-10-24T08:49:16.970Z,4.40
2022-10-24T08:51:48.929Z,5.23
2022-10-24T08:54:23.352Z,6.30
2022-10-24T08:56:53.341Z,7.60
2022-10-24T08:59:23.078Z,8.30
2022-10-24T09:02:00.577Z,4.83
2022-10-24T09:04:41.474Z,3.77
2022-10-24T09:07:19.262Z,7.57
2022-10-24T09:09:51.350Z,6.27
2022-10-24T09:12:21.852Z,3.80
2022-10-24T09:14:57.148Z,7.37
2022-10-24T09:17:30.764Z,5.90
2022-10-24T09:20:01.557Z,4.23
2022-10-24T09:22:31.717Z,7.03
2022-10-24T09:25:03.472Z,4.97
2022-10-24T09:27:35.826Z,4.97
2022-10-24T09:30:07.358Z,3.37
2022-10-24T09:32:37.622Z,3.07
2022-10-24T09:35:07.705Z,9.07
2022-10-24T09:37:44.241Z,3.83
2022-10-24T09:40:19.094Z,3.40
2022-10-24T09:42:55.931Z,5.17
2022-10-24T09:45:37.231Z,4.93
2022-10-24T09:48:16.234Z,4.17
2022-10-24T09:50:45.938Z,8.60
2022-10-24T09:53:28.786Z,5.03
2022-10-24T09:55:59.943Z,5.83
2022-10-24T09:58:32.939Z,5.00
2022-10-24T10:01:06.938Z,4.63
2022-10-24T10:03:36.611Z,3.33
2022-10-24T10:06:15.724Z,7.77
2022-10-24T10:08:51.605Z,4.53
2022-10-24T10:11:27.678Z,7.07
2022-10-24T10:13:56.269Z,3.23
2022-10-24T10:16:29.354Z,4.47
2022-10-24T10:19:04.010Z,6.07
2022-10-24T10:21:54.087Z,3.63
2022-10-24T10:24:27.515Z,3.17
2022-10-24T10:26:55.916Z,4.80
2022-10-24T10:29:25.382Z,4.87
2022-10-24T10:32:07.373Z,2.83
2022-10-24T10:34:40.242Z,3.80
2022-10-24T10:37:27.068Z,3.20
2022-10-24T10:40:15.926Z,5.87
2022-10-24T10:42:59.265Z,5.50
2022-10-24T10:45:36.615Z,5.27
2022-10-24T10:48:26.081Z,5.40
2022-10-24T10:51:02.287Z,5.30
2022-10-24T10:53:41.591Z,3.47
2022-10-24T10:56:23.731Z,5.77
2022-10-24T10:59:06.660Z,5.07
2022-10-24T11:01:50.033Z,4.73
2022-10-24T11:04:29.008Z,5.20
2022-10-24T11:07:06.378Z,6.83
2022-10-24T11:09:40.327Z,5.17
2022-10-24T11:12:14.417Z,5.97
2022-10-24T11:14:46.748Z,7.90
2022-10-24T11:17:20.326Z,4.93
2022-10-24T11:19:58.501Z,4.20
2022-10-24T11:22:30.911Z,5.67
2022-10-24T11:25:03.870Z,4.30
2022-10-24T11:27:40.152Z,5.17
2022-10-24T11:30:15.619Z,9.57
2022-10-24T11:32:49.254Z,5.70
2022-10-24T11:35:29.096Z,4.77
2022-10-24T11:38:03.782Z,6.03
2022-10-24T11:40:32.614Z,5.60
2022-10-24T11:43:12.003Z,5.63
2022-10-24T11:45:47.210Z,7.07
2022-10-24T11:48:20.641Z,5.07
2022-10-24T11:50:54.323Z,5.63
2022-10-24T11:53:45.917Z,6.00
2022-10-24T11:56:31.219Z,6.80
2022-10-24T11:59:02.768Z,8.27
2022-10-24T12:02:00.221Z,7.40
2022-10-24T12:05:00.377Z,6.67
2022-10-24T12:07:51.729Z,5.50
2022-10-24T12:10:33.925Z,9.43
2022-10-24T12:13:17.495Z,6.10
2022-10-24T12:15:55.016Z,9.93
2022-10-24T12:18:31.057Z,5.97
2022-10-24T12:21:04.570Z,9.17
2022-10-24T12:23:34.957Z,6.60
2022-10-24T12:26:05.541Z,7.53
2022-10-24T12:28:34.550Z,7.07
2022-10-24T12:31:23.830Z,7.33
2022-10-24T12:34:33.761Z,6.53
2022-10-24T12:37:12.332Z,6.23
2022-10-24T12:39:47.148Z,7.67
2022-10-24T12:42:18.596Z,6.33
2022-10-24T12:44:50.553Z,7.17
2022-10-24T12:47:32.371Z,6.73
2022-10-24T12:50:21.624Z,6.17
2022-10-24T12:53:04.841Z,7.40
2022-10-24T12:56:09.927Z,7.00
2022-10-24T12:58:42.980Z,6.83
2022-10-24T13:01:24.215Z,8.27
2022-10-24T13:07:41.869Z,7.23
2022-10-24T13:10:32.704Z,9.07
2022-10-24T13:13:23.374Z,10.40
2022-10-24T13:15:58.578Z,8.80
2022-10-24T13:18:41.808Z,9.53
2022-10-24T13:21:18.545Z,10.37
2022-10-24T13:23:50.385Z,14.60
2022-10-24T13:26:39.037Z,11.00
2022-10-24T13:29:14.189Z,11.20
2022-10-24T13:32:18.551Z,12.70
2022-10-24T13:34:56.722Z,10.70
2022-10-24T13:37:27.335Z,14.53
2022-10-24T13:40:01.660Z,12.10
2022-10-24T13:42:36.207Z,12.17
2022-10-24T13:45:20.850Z,9.77
2022-10-24T13:47:53.048Z,10.83
2022-10-24T13:50:24.894Z,12.67
2022-10-24T13:52:58.225Z,12.40
2022-10-24T13:55:29.783Z,10.17
2022-10-24T13:58:01.917Z,10.90
2022-10-24T14:00:34.338Z,12.33
2022-10-24T14:03:06.491Z,15.17
2022-10-24T14:05:39.031Z,12.53
2022-10-24T14:08:11.756Z,12.63
2022-10-24T14:10:40.146Z,15.03
2022-10-24T14:13:14.109Z,11.03
2022-10-24T14:15:50.166Z,11.87
2022-10-24T14:18:18.602Z,9.10
2022-10-24T14:20:53.768Z,8.23
2022-10-24T14:23:27.095Z,9.30
2022-10-24T14:25:58.324Z,10.80
2022-10-24T14:28:31.028Z,12.67
2022-10-24T14:31:02.819Z,11.57
2022-10-24T14:33:31.757Z,10.30
2022-10-24T14:36:03.309Z,11.03
2022-10-24T14:38:32.313Z,10.90
2022-10-24T14:41:08.945Z,9.73
2022-10-24T14:43:42.338Z,12.60
2022-10-24T14:46:34.861Z,10.40
2022-10-24T14:49:20.353Z,13.03
2022-10-24T14:51:50.219Z,11.17
2022-10-24T14:54:22.259Z,9.63
2022-10-24T14:56:52.557Z,8.63
2022-10-24T14:59:25.998Z,12.80
2022-10-24T15:01:58.862Z,11.20
2022-10-24T15:04:33.051Z,11.50
2022-10-24T15:07:14.325Z,8.37
2022-10-24T15:09:53.762Z,10.63
2022-10-24T15:12:28.083Z,10.10
2022-10-24T15:14:57.341Z,10.53
2022-10-24T15:17:32.805Z,13.10
2022-10-24T15:20:03.730Z,11.97
2022-10-24T15:22:35.127Z,10.60
2022-10-24T15:25:05.954Z,14.03
2022-10-24T15:27:42.675Z,14.33
2022-10-24T15:30:15.678Z,15.37
2022-10-24T15:32:45.717Z,16.07
2022-10-24T15:35:15.054Z,16.40
2022-10-24T15:37:55.064Z,14.10
2022-10-24T15:40:25.241Z,12.73
2022-10-24T15:42:53.876Z,11.60
2022-10-24T15:45:22.539Z,13.33
2022-10-24T15:47:54.214Z,11.87
2022-10-24T15:50:24.679Z,12.40
2022-10-24T15:52:56.151Z,12.00
2022-10-24T15:55:26.813Z,10.70
2022-10-24T15:57:57.151Z,15.53
2022-10-24T16:00:26.177Z,15.13
2022-10-24T16:03:00.950Z,14.33
2022-10-24T16:05:32.197Z,10.57
2022-10-24T16:08:00.452Z,12.13
2022-10-24T16:10:28.722Z,12.07
2022-10-24T16:12:57.135Z,15.13
2022-10-24T16:15:29.717Z,14.97
2022-10-24T16:17:59.698Z,13.80
2022-10-24T16:20:27.865Z,11.87
2022-10-24T16:22:56.392Z,12.37
2022-10-24T16:25:26.566Z,12.87
2022-10-24T16:27:54.954Z,14.50
2022-10-24T16:30:25.480Z,16.83
2022-10-24T16:32:53.879Z,15.37
2022-10-24T16:35:25.770Z,11.00
2022-10-24T16:37:54.706Z,12.60
2022-10-24T16:40:23.352Z,15.73
2022-10-24T16:42:52.612Z,11.87
2022-10-24T16:45:21.989Z,13.90
2022-10-24T16:47:51.095Z,11.53
2022-10-24T16:50:24.185Z,10.23
2022-10-24T16:52:54.883Z,10.00
2022-10-24T16:55:23.653Z,15.13
2022-10-24T16:57:52.298Z,16.77
2022-10-24T17:00:22.927Z,16.27
2022-10-24T17:02:54.132Z,10.87
2022-10-24T17:05:24.595Z,15.73
2022-10-24T17:07:54.578Z,15.83
2022-10-24T17:10:24.839Z,12.63
2022-10-24T17:12:54.082Z,11.47
2022-10-24T17:15:22.901Z,11.37
2022-10-24T17:17:52.055Z,13.80
2022-10-24T17:20:20.244Z,8.47
2022-10-24T17:22:48.964Z,10.70
2022-10-24T17:25:24.659Z,8.93
2022-10-24T17:27:53.647Z,13.00
2022-10-24T17:30:24.588Z,10.00
2022-10-24T17:32:53.523Z,8.50
2022-10-24T17:35:24.532Z,10.80
2022-10-24T17:38:09.239Z,10.50
2022-10-24T17:40:43.825Z,6.30
2022-10-24T17:43:19.182Z,11.03
2022-10-24T17:45:48.339Z,10.43
2022-10-24T17:48:17.464Z,9.17
2022-10-24T17:50:46.345Z,9.80
2022-10-24T17:53:15.548Z,8.40
2022-10-24T17:55:47.512Z,7.30
2022-10-24T17:58:18.096Z,7.57
2022-10-24T18:00:47.632Z,12.80
2022-10-24T18:03:16.020Z,7.00
2022-10-24T18:05:44.917Z,9.20
2022-10-24T18:08:16.539Z,5.93
2022-10-24T18:10:47.401Z,8.83
2022-10-24T18:13:16.195Z,8.73
2022-10-24T18:15:44.409Z,5.67
2022-10-24T18:18:13.295Z,5.87
2022-10-24T18:20:41.745Z,9.27
2022-10-24T18:23:10.159Z,10.67
2022-10-24T18:25:38.690Z,9.50
2022-10-24T18:28:08.898Z,8.83
2022-10-24T18:30:36.985Z,14.07
2022-10-24T18:33:05.888Z,7.13
2022-10-24T18:35:36.272Z,8.77
2022-10-24T18:38:04.703Z,9.87
2022-10-24T18:40:35.412Z,8.93
2022-10-24T18:43:05.942Z,11.63
2022-10-24T18:45:36.878Z,11.90
2022-10-24T18:48:05.642Z,11.33
2022-10-24T18:50:34.374Z,11.17
2022-10-24T18:53:05.998Z,11.50
2022-10-24T18:55:36.064Z,8.63
2022-10-24T18:58:05.184Z,7.13
2022-10-24T19:00:40.768Z,10.73
2022-10-24T19:03:18.241Z,15.20
2022-10-24T19:05:53.557Z,10.83
2022-10-24T19:08:24.813Z,11.47
2022-10-24T19:10:56.555Z,10.53
2022-10-24T19:13:26.113Z,8.33
2022-10-24T19:15:58.609Z,7.07
2022-10-24T19:18:28.579Z,11.33
2022-10-24T19:20:56.742Z,11.23
2022-10-24T19:23:25.035Z,9.50
2022-10-24T19:25:54.867Z,9.03
2022-10-24T19:28:23.718Z,7.57
2022-10-24T19:30:52.294Z,7.37
2022-10-24T19:33:25.112Z,10.90
2022-10-24T19:35:53.423Z,10.57
2022-10-24T19:38:21.655Z,7.20
2022-10-24T19:40:52.074Z,14.47
2022-10-24T19:43:21.051Z,10.63
2022-10-24T19:46:07.089Z,15.93
2022-10-24T19:48:38.702Z,13.87
2022-10-24T19:51:10.918Z,8.50
2022-10-24T19:53:40.537Z,8.73
2022-10-24T19:56:11.486Z,7.73
2022-10-24T19:58:41.481Z,11.50
2022-10-24T20:01:12.299Z,10.50
2022-10-24T20:03:43.204Z,9.03
2022-10-24T20:06:12.361Z,7.23
2022-10-24T20:08:41.367Z,10.77
2022-10-24T20:11:11.006Z,8.53
2022-10-24T20:13:39.209Z,8.43
2022-10-24T20:16:10.425Z,5.87
2022-10-24T20:21:17.825Z,9.53
2022-10-24T20:23:48.576Z,7.80
2022-10-24T20:26:19.644Z,6.97
2022-10-24T20:28:50.401Z,12.60
2022-10-24T20:31:21.738Z,12.50
2022-10-24T20:33:50.518Z,15.50
2022-10-24T20:36:21.977Z,10.53
2022-10-24T20:38:50.159Z,9.10
2022-10-24T20:41:18.320Z,9.73
2022-10-24T20:43:46.907Z,8.77
2022-10-24T20:46:15.256Z,9.77
2022-10-24T20:48:43.518Z,12.60
2022-10-24T20:51:13.933Z,9.83
2022-10-24T20:53:44.481Z,7.77
2022-10-24T20:56:14.654Z,14.27
2022-10-24T20:58:44.969Z,11.33
2022-10-24T21:01:14.928Z,10.03
2022-10-24T21:03:44.069Z,10.63
2022-10-24T21:06:18.570Z,9.30
2022-10-24T21:08:51.119Z,11.77
2022-10-24T21:11:25.186Z,10.43
2022-10-24T21:13:54.081Z,10.80
2022-10-24T21:16:22.468Z,9.33
2022-10-24T21:18:51.854Z,6.30
2022-10-24T21:21:21.062Z,13.53
2022-10-24T21:23:53.320Z,7.47
2022-10-24T21:26:21.834Z,8.20
2022-10-24T21:28:50.232Z,7.03
2022-10-24T21:31:20.343Z,7.40
2022-10-24T21:33:48.998Z,8.93
2022-10-24T21:36:19.290Z,9.23
2022-10-24T21:38:49.079Z,9.33
2022-10-24T21:41:19.851Z,8.93
2022-10-24T21:43:50.901Z,11.43
2022-10-24T21:46:20.989Z,13.40
2022-10-24T21:48:50.663Z,12.53
2022-10-24T21:51:22.347Z,17.03
2022-10-24T21:53:52.843Z,6.83
2022-10-24T21:56:24.508Z,12.07
2022-10-24T21:58:54.569Z,9.00
2022-10-24T22:01:26.813Z,11.57
2022-10-24T22:03:56.130Z,15.43
2022-10-24T22:06:24.800Z,13.10
2022-10-24T22:08:53.957Z,9.63
2022-10-24T22:11:25.347Z,8.27
2022-10-24T22:13:54.795Z,11.17
2022-10-24T22:16:26.177Z,14.60
2022-10-24T22:18:54.473Z,8.10
2022-10-24T22:21:26.455Z,16.13
2022-10-24T22:23:56.370Z,15.93
2022-10-24T22:26:26.314Z,13.07
2022-10-24T22:28:55.896Z,15.43
2022-10-24T22:31:25.603Z,19.53
2022-10-24T22:33:54.450Z,12.57
2022-10-24T22:36:33.703Z,12.43
2022-10-24T22:39:02.448Z,13.43
2022-10-24T22:41:32.888Z,13.77
2022-10-24T22:44:01.733Z,12.87
2022-10-24T22:46:48.011Z,19.50
2022-10-24T22:49:24.375Z,19.70
2022-10-24T22:51:53.191Z,19.53
2022-10-24T22:54:25.245Z,15.50
2022-10-24T22:56:55.742Z,9.27
2022-10-24T22:59:24.428Z,13.50
2022-10-24T23:02:01.417Z,13.63
2022-10-24T23:04:36.902Z,9.80
2022-10-24T23:07:15.960Z,15.83
2022-10-24T23:09:44.208Z,20.80
2022-10-24T23:12:17.040Z,11.97
2022-10-24T23:14:46.723Z,14.37
2022-10-24T23:17:23.175Z,20.20
2022-10-24T23:19:52.204Z,15.03
2022-10-24T23:22:24.662Z,25.20
2022-10-24T23:24:54.494Z,19.03
2022-10-24T23:27:33.091Z,22.00
2022-10-24T23:30:02.502Z,19.43
2022-10-24T23:32:32.610Z,19.23
2022-10-24T23:35:01.687Z,15.80
2022-10-24T23:37:35.607Z,21.73
2022-10-24T23:40:13.410Z,21.70
2022-10-24T23:42:44.327Z,21.67
2022-10-24T23:45:14.871Z,16.70
2022-10-24T23:47:54.614Z,19.53
2022-10-24T23:50:29.167Z,21.60
2022-10-24T23:53:20.989Z,17.53
2022-10-24T23:55:49.969Z,23.17
2022-10-24T23:58:19.810Z,17.50
